Jeanne Sea Qua — WD16406 — position and weather

sailwx.info

Track history (hours):
 
Tides and Currents Weather Stations Pressure Air Temp Water Temp Dewpoint Dewpoint Depression Visibility Wind Speed Wind Dir Waves Ship Positions

Jeanne Sea Qua

Last reported at 2017-Sep-21 18:37 UTC. Time now 2017-Sep-21 23:14 UTC.
Position N 32°41' W 117°10'.

Length 22 m.

Type: Pleasure craft. MMSI: 367718380.

Date/timePositionNaut miles runAvg speedWind from/ knotsBaromVisibWave heightAir tempDewpointWater temp
2017-Sep-21 18:37N 32°41' W 117°10'2 4.1
2017-Sep-21 18:11N 32°43' W 117°11'210.7
2017-Sep-21 18:00N 32°43' W 117°13'611.2
2017-Sep-21 17:30N 32°37' W 117°15'715.2
2017-Sep-21 17:00N 32°44' W 117°20'816.3
2017-Sep-21 16:30N 32°51' W 117°24'816.3
2017-Sep-21 16:01N 32°58' W 117°29'816.2
2017-Sep-21 15:30N 33°05' W 117°34'816.1
2017-Sep-21 15:00N 33°12' W 117°38'816.3
2017-Sep-21 14:31N 33°19' W 117°43'815.9
2017-Sep-21 14:00N 33°26' W 117°47'815.9
2017-Sep-21 13:29N 33°34' W 117°52'4 6.8
2017-Sep-21 12:54N 33°37' W 117°55'0 0.3
2017-Sep-21 12:25N 33°37' W 117°55'0 0.0
2017-Sep-21 10:25N 33°37' W 117°55'0 0.1
2017-Sep-21 09:55N 33°37' W 117°55'0 0.0
2017-Sep-21 09:07N 33°37' W 117°55'0 0.0
2017-Sep-21 08:08N 33°37' W 117°55'0 0.0
2017-Sep-21 07:50N 33°37' W 117°55'0 0.0
2017-Sep-21 07:25N 33°37' W 117°55'0 0.0
2017-Sep-20 21:01N 33°37' W 117°55'0 0.0
2017-Sep-20 20:13N 33°37' W 117°55'0 0.0
2017-Sep-20 19:43N 33°37' W 117°55'0 0.0
2017-Sep-20 19:19N 33°37' W 117°55'0 0.0
2017-Sep-20 18:31N 33°37' W 117°55'0 0.1
2017-Sep-20 18:25N 33°37' W 117°55'0 0.0
2017-Sep-20 16:37N 33°37' W 117°55'0 0.0
2017-Sep-20 16:13N 33°37' W 117°55'0 0.0
2017-Sep-20 14:49N 33°37' W 117°55'0 0.0
2017-Sep-20 13:43N 33°37' W 117°55'0 0.0
2017-Sep-20 13:14N 33°37' W 117°55'0 0.0
2017-Sep-20 11:43N 33°37' W 117°55'0 0.0
2017-Sep-20 11:13N 33°37' W 117°55'0 0.0
2017-Sep-20 10:55N 33°37' W 117°55'0 0.0
2017-Sep-20 10:19N 33°37' W 117°55'0 0.0
2017-Sep-20 09:56N 33°37' W 117°55'0 0.0
2017-Sep-20 07:49N 33°37' W 117°55'0 0.0
2017-Sep-20 07:19N 33°37' W 117°55'0 0.0
2017-Sep-20 05:31N 33°37' W 117°55'0 0.0
2017-Sep-20 05:25N 33°37' W 117°55'0 0.0
2017-Sep-20 04:37N 33°37' W 117°55'0 0.0
2017-Sep-20 04:26N 33°37' W 117°55'0 0.0
2017-Sep-20 02:37N 33°37' W 117°55'0 0.0
2017-Sep-20 02:26N 33°37' W 117°55'0 0.0
2017-Sep-19 23:37N 33°37' W 117°55'0 0.0
2017-Sep-19 23:25N 33°37' W 117°55'0 0.0
2017-Sep-19 22:37N 33°37' W 117°55'0 0.0
2017-Sep-19 22:19N 33°37' W 117°55'0 0.0
2017-Sep-19 21:49N 33°37' W 117°55'0 0.0
2017-Sep-19 21:25N 33°37' W 117°55'0 0.0
2017-Sep-19 20:55N 33°37' W 117°55'0 0.0
2017-Sep-19 20:25N 33°37' W 117°55'0 0.0
2017-Sep-19 19:55N 33°37' W 117°55'0 0.0
2017-Sep-19 19:28N 33°37' W 117°55'0 0.1
2017-Sep-19 19:00N 33°37' W 117°55'3 4.9
2017-Sep-19 18:29N 33°36' W 117°53'811.0
2017-Sep-19 17:48N 33°35' W 118°02'612.7
2017-Sep-19 17:17N 33°37' W 118°09'41 0.9
2017-Sep-17 18:26N 33°59' W 118°51'613.4
2017-Sep-17 18:00N 34°01' W 118°58'713.5
2017-Sep-17 17:30N 34°03' W 119°05'713.9
2017-Sep-17 17:00N 34°05' W 119°13'912.1
2017-Sep-17 16:14N 34°11' W 119°21'612.1
2017-Sep-17 15:44N 34°16' W 119°26'412.4
2017-Sep-17 15:25N 34°18' W 119°30'512.4
2017-Sep-17 15:00N 34°21' W 119°35'611.0
2017-Sep-17 14:26N 34°25' W 119°41'0 0.1
2017-Sep-17 08:01N 34°24' W 119°42'0 0.0
2017-Sep-17 07:49N 34°24' W 119°42'0 0.0
2017-Sep-17 04:52N 34°24' W 119°42'0 0.0
2017-Sep-17 03:40N 34°24' W 119°42'0 0.0
2017-Sep-17 03:28N 34°24' W 119°42'0 0.0
2017-Sep-17 01:28N 34°24' W 119°42'0 0.0
2017-Sep-16 19:22N 34°24' W 119°42'0 0.0
2017-Sep-16 18:22N 34°24' W 119°42'0 0.0
2017-Sep-16 00:13N 34°24' W 119°42'0 0.0
2017-Sep-15 12:00N 34°24' W 119°42'0 0.0
2017-Sep-15 09:21N 34°24' W 119°42'0 0.0
2017-Sep-15 05:58N 34°24' W 119°42'0 0.0
2017-Sep-14 15:25N 34°24' W 119°42'0 0.0
2017-Sep-14 14:46N 34°24' W 119°42'0 0.0
2017-Sep-14 14:22N 34°24' W 119°42'0 0.0
2017-Sep-14 09:15N 34°24' W 119°42'0 0.0
2017-Sep-14 06:32N 34°24' W 119°42'0 0.0
2017-Sep-14 06:15N 34°24' W 119°42'0 0.0
2017-Sep-14 05:56N 34°24' W 119°42'1 0.0
2017-Sep-13 17:54N 34°24' W 119°41'4 9.8
2017-Sep-13 17:31N 34°22' W 119°45'610.9
2017-Sep-13 16:57N 34°22' W 119°52'5 9.8
2017-Sep-13 16:26N 34°23' W 119°58'5 9.8
2017-Sep-13 15:54N 34°23' W 120°05'4 9.7
2017-Sep-13 15:31N 34°23' W 120°09'510.1
2017-Sep-13 15:00N 34°24' W 120°15'610.5
2017-Sep-13 14:28N 34°24' W 120°22'510.4
2017-Sep-13 13:57N 34°25' W 120°29'510.3
2017-Sep-13 13:30N 34°27' W 120°34'510.5
2017-Sep-13 13:00N 34°30' W 120°39'510.3
2017-Sep-13 12:30N 34°34' W 120°43'510.2
2017-Sep-13 12:00N 34°38' W 120°46'510.0
2017-Sep-13 11:30N 34°43' W 120°49'5 9.5
2017-Sep-13 11:01N 34°47' W 120°52'5 9.8
2017-Sep-13 10:31N 34°51' W 120°55'510.1
2017-Sep-13 10:00N 34°55' W 120°58'510.3
2017-Sep-13 09:30N 34°60' W 121°01'510.1
2017-Sep-13 09:00N 35°04' W 121°04'510.6
2017-Sep-13 08:30N 35°09' W 121°07'5410.7
2017-Sep-13 03:27N 35°55' W 121°41'510.5
2017-Sep-13 03:00N 35°59' W 121°44'510.4
2017-Sep-13 02:30N 36°04' W 121°47'510.6
2017-Sep-13 02:00N 36°08' W 121°51'510.7
2017-Sep-13 01:30N 36°13' W 121°54'510.6
2017-Sep-13 01:00N 36°18' W 121°57'510.2
2017-Sep-13 00:29N 36°23' W 121°58'510.4
2017-Sep-13 00:00N 36°28' W 121°59'510.3
2017-Sep-12 23:30N 36°33' W 121°59'6 7.3
2017-Sep-12 22:37N 36°38' W 121°54'2 9.3
2017-Sep-12 22:27N 36°37' W 121°53'0 0.3
2017-Sep-12 22:01N 36°37' W 121°54'2010.5
2017-Sep-12 20:09N 36°52' W 122°08'1210.7
2017-Sep-12 19:03N 37°01' W 122°18'210.5
2017-Sep-12 18:53N 37°03' W 122°19'1910.9
2017-Sep-12 17:07N 37°18' W 122°34'111.1
2017-Sep-12 17:01N 37°19' W 122°35'611.1
2017-Sep-12 16:29N 37°24' W 122°38'711.2
2017-Sep-12 15:54N 37°29' W 122°43'611.1
2017-Sep-12 15:20N 37°35' W 122°47'411.1
2017-Sep-12 15:00N 37°38' W 122°49'611.0
2017-Sep-12 14:30N 37°43' W 122°53'611.3
2017-Sep-12 14:00N 37°47' W 122°57'611.2
2017-Sep-12 13:30N 37°52' W 123°00'611.2
2017-Sep-12 13:00N 37°55' W 123°06'510.8
2017-Sep-12 12:30N 37°59' W 123°11'610.7
2017-Sep-12 11:59N 38°03' W 123°16'510.8
2017-Sep-12 11:30N 38°07' W 123°20'510.6
2017-Sep-12 11:00N 38°11' W 123°24'510.9
2017-Sep-12 10:30N 38°16' W 123°27'510.4
2017-Sep-12 10:00N 38°21' W 123°30'510.1
2017-Sep-12 09:30N 38°25' W 123°33'  
Track history (hours):
 
Tides and Currents Weather Stations Pressure Air Temp Water Temp Dewpoint Dewpoint Depression Visibility Wind Speed Wind Dir Waves Ship Positions

Jeanne Sea Qua

Last reported at 2017-Sep-21 18:37 UTC. Time now 2017-Sep-21 23:14 UTC.
Position N 32°41' W 117°10'.

Length 22 m.

Type: Pleasure craft. MMSI: 367718380.

Date/timePositionNaut miles runAvg speedWind from/ knotsBaromVisibWave heightAir tempDewpointWater temp
2017-Sep-21 18:37N 32°41' W 117°10'2 4.1
2017-Sep-21 18:11N 32°43' W 117°11'210.7
2017-Sep-21 18:00N 32°43' W 117°13'611.2
2017-Sep-21 17:30N 32°37' W 117°15'715.2
2017-Sep-21 17:00N 32°44' W 117°20'816.3
2017-Sep-21 16:30N 32°51' W 117°24'816.3
2017-Sep-21 16:01N 32°58' W 117°29'816.2
2017-Sep-21 15:30N 33°05' W 117°34'816.1
2017-Sep-21 15:00N 33°12' W 117°38'816.3
2017-Sep-21 14:31N 33°19' W 117°43'815.9
2017-Sep-21 14:00N 33°26' W 117°47'815.9
2017-Sep-21 13:29N 33°34' W 117°52'4 6.8
2017-Sep-21 12:54N 33°37' W 117°55'0 0.3
2017-Sep-21 12:25N 33°37' W 117°55'0 0.0
2017-Sep-21 10:25N 33°37' W 117°55'0 0.1
2017-Sep-21 09:55N 33°37' W 117°55'0 0.0
2017-Sep-21 09:07N 33°37' W 117°55'0 0.0
2017-Sep-21 08:08N 33°37' W 117°55'0 0.0
2017-Sep-21 07:50N 33°37' W 117°55'0 0.0
2017-Sep-21 07:25N 33°37' W 117°55'0 0.0
2017-Sep-20 21:01N 33°37' W 117°55'0 0.0
2017-Sep-20 20:13N 33°37' W 117°55'0 0.0
2017-Sep-20 19:43N 33°37' W 117°55'0 0.0
2017-Sep-20 19:19N 33°37' W 117°55'0 0.0
2017-Sep-20 18:31N 33°37' W 117°55'0 0.1
2017-Sep-20 18:25N 33°37' W 117°55'0 0.0
2017-Sep-20 16:37N 33°37' W 117°55'0 0.0
2017-Sep-20 16:13N 33°37' W 117°55'0 0.0
2017-Sep-20 14:49N 33°37' W 117°55'0 0.0
2017-Sep-20 13:43N 33°37' W 117°55'0 0.0
2017-Sep-20 13:14N 33°37' W 117°55'0 0.0
2017-Sep-20 11:43N 33°37' W 117°55'0 0.0
2017-Sep-20 11:13N 33°37' W 117°55'0 0.0
2017-Sep-20 10:55N 33°37' W 117°55'0 0.0
2017-Sep-20 10:19N 33°37' W 117°55'0 0.0
2017-Sep-20 09:56N 33°37' W 117°55'0 0.0
2017-Sep-20 07:49N 33°37' W 117°55'0 0.0
2017-Sep-20 07:19N 33°37' W 117°55'0 0.0
2017-Sep-20 05:31N 33°37' W 117°55'0 0.0
2017-Sep-20 05:25N 33°37' W 117°55'0 0.0
2017-Sep-20 04:37N 33°37' W 117°55'0 0.0
2017-Sep-20 04:26N 33°37' W 117°55'0 0.0
2017-Sep-20 02:37N 33°37' W 117°55'0 0.0
2017-Sep-20 02:26N 33°37' W 117°55'0 0.0
2017-Sep-19 23:37N 33°37' W 117°55'0 0.0
2017-Sep-19 23:25N 33°37' W 117°55'0 0.0
2017-Sep-19 22:37N 33°37' W 117°55'0 0.0
2017-Sep-19 22:19N 33°37' W 117°55'0 0.0
2017-Sep-19 21:49N 33°37' W 117°55'0 0.0
2017-Sep-19 21:25N 33°37' W 117°55'0 0.0
2017-Sep-19 20:55N 33°37' W 117°55'0 0.0
2017-Sep-19 20:25N 33°37' W 117°55'0 0.0
2017-Sep-19 19:55N 33°37' W 117°55'0 0.0
2017-Sep-19 19:28N 33°37' W 117°55'0 0.1
2017-Sep-19 19:00N 33°37' W 117°55'3 4.9
2017-Sep-19 18:29N 33°36' W 117°53'811.0
2017-Sep-19 17:48N 33°35' W 118°02'612.7
2017-Sep-19 17:17N 33°37' W 118°09'41 0.9
2017-Sep-17 18:26N 33°59' W 118°51'613.4
2017-Sep-17 18:00N 34°01' W 118°58'713.5
2017-Sep-17 17:30N 34°03' W 119°05'713.9
2017-Sep-17 17:00N 34°05' W 119°13'912.1
2017-Sep-17 16:14N 34°11' W 119°21'612.1
2017-Sep-17 15:44N 34°16' W 119°26'412.4
2017-Sep-17 15:25N 34°18' W 119°30'512.4
2017-Sep-17 15:00N 34°21' W 119°35'611.0
2017-Sep-17 14:26N 34°25' W 119°41'0 0.1
2017-Sep-17 08:01N 34°24' W 119°42'0 0.0
2017-Sep-17 07:49N 34°24' W 119°42'0 0.0
2017-Sep-17 04:52N 34°24' W 119°42'0 0.0
2017-Sep-17 03:40N 34°24' W 119°42'0 0.0
2017-Sep-17 03:28N 34°24' W 119°42'0 0.0
2017-Sep-17 01:28N 34°24' W 119°42'0 0.0
2017-Sep-16 19:22N 34°24' W 119°42'0 0.0
2017-Sep-16 18:22N 34°24' W 119°42'0 0.0
2017-Sep-16 00:13N 34°24' W 119°42'0 0.0
2017-Sep-15 12:00N 34°24' W 119°42'0 0.0
2017-Sep-15 09:21N 34°24' W 119°42'0 0.0
2017-Sep-15 05:58N 34°24' W 119°42'0 0.0
2017-Sep-14 15:25N 34°24' W 119°42'0 0.0
2017-Sep-14 14:46N 34°24' W 119°42'0 0.0
2017-Sep-14 14:22N 34°24' W 119°42'0 0.0
2017-Sep-14 09:15N 34°24' W 119°42'0 0.0
2017-Sep-14 06:32N 34°24' W 119°42'0 0.0
2017-Sep-14 06:15N 34°24' W 119°42'0 0.0
2017-Sep-14 05:56N 34°24' W 119°42'1 0.0
2017-Sep-13 17:54N 34°24' W 119°41'4 9.8
2017-Sep-13 17:31N 34°22' W 119°45'610.9
2017-Sep-13 16:57N 34°22' W 119°52'5 9.8
2017-Sep-13 16:26N 34°23' W 119°58'5 9.8
2017-Sep-13 15:54N 34°23' W 120°05'4 9.7
2017-Sep-13 15:31N 34°23' W 120°09'510.1
2017-Sep-13 15:00N 34°24' W 120°15'610.5
2017-Sep-13 14:28N 34°24' W 120°22'510.4
2017-Sep-13 13:57N 34°25' W 120°29'510.3
2017-Sep-13 13:30N 34°27' W 120°34'510.5
2017-Sep-13 13:00N 34°30' W 120°39'510.3
2017-Sep-13 12:30N 34°34' W 120°43'510.2
2017-Sep-13 12:00N 34°38' W 120°46'510.0
2017-Sep-13 11:30N 34°43' W 120°49'5 9.5
2017-Sep-13 11:01N 34°47' W 120°52'5 9.8
2017-Sep-13 10:31N 34°51' W 120°55'510.1
2017-Sep-13 10:00N 34°55' W 120°58'510.3
2017-Sep-13 09:30N 34°60' W 121°01'510.1
2017-Sep-13 09:00N 35°04' W 121°04'510.6
2017-Sep-13 08:30N 35°09' W 121°07'5410.7
2017-Sep-13 03:27N 35°55' W 121°41'510.5
2017-Sep-13 03:00N 35°59' W 121°44'510.4
2017-Sep-13 02:30N 36°04' W 121°47'510.6
2017-Sep-13 02:00N 36°08' W 121°51'510.7
2017-Sep-13 01:30N 36°13' W 121°54'510.6
2017-Sep-13 01:00N 36°18' W 121°57'510.2
2017-Sep-13 00:29N 36°23' W 121°58'510.4
2017-Sep-13 00:00N 36°28' W 121°59'510.3
2017-Sep-12 23:30N 36°33' W 121°59'6 7.3
2017-Sep-12 22:37N 36°38' W 121°54'2 9.3
2017-Sep-12 22:27N 36°37' W 121°53'0 0.3
2017-Sep-12 22:01N 36°37' W 121°54'2010.5
2017-Sep-12 20:09N 36°52' W 122°08'1210.7
2017-Sep-12 19:03N 37°01' W 122°18'210.5
2017-Sep-12 18:53N 37°03' W 122°19'1910.9
2017-Sep-12 17:07N 37°18' W 122°34'111.1
2017-Sep-12 17:01N 37°19' W 122°35'611.1
2017-Sep-12 16:29N 37°24' W 122°38'711.2
2017-Sep-12 15:54N 37°29' W 122°43'611.1
2017-Sep-12 15:20N 37°35' W 122°47'411.1
2017-Sep-12 15:00N 37°38' W 122°49'611.0
2017-Sep-12 14:30N 37°43' W 122°53'611.3
2017-Sep-12 14:00N 37°47' W 122°57'611.2
2017-Sep-12 13:30N 37°52' W 123°00'611.2
2017-Sep-12 13:00N 37°55' W 123°06'510.8
2017-Sep-12 12:30N 37°59' W 123°11'610.7
2017-Sep-12 11:59N 38°03' W 123°16'510.8
2017-Sep-12 11:30N 38°07' W 123°20'510.6
2017-Sep-12 11:00N 38°11' W 123°24'510.9
2017-Sep-12 10:30N 38°16' W 123°27'510.4
2017-Sep-12 10:00N 38°21' W 123°30'510.1
2017-Sep-12 09:30N 38°25' W 123°33'  

Dump ship's entire track history